Terminal Aerodrome Forecast
Issued by NWS Upton, NY

Home | Current Version | Previous Version | Text Only | Print | Product List | Glossary On
Versions: 1 2 3 4 5 6 7 8 9 10 11 12 13 14 15 16 17 18 19 20 21 22 23 24 25 26 27 28 29 30 31 32
444
FTUS41 KOKX 261602 AAA
TAFEWR
TAF AMD
KEWR 261602Z 2616/2718 06008KT P6SM BKN015
     FM261900 04008KT P6SM SCT025 BKN035
     FM270000 04006KT 6SM BR OVC015
     FM270200 04006KT 4SM -DZ BR OVC009
     FM270500 05006KT 2SM -DZ BR OVC006
     FM270900 06005KT 1SM -DZ BR OVC004
     FM271300 VRB05KT 4SM BR OVC006
     FM271600 21007KT P6SM OVC015=

USA.gov is the U.S. government's official web portal to all federal, state and local government web resources and services.